createdAt,value
2024-03-07T00:02:50.855Z,42.67
2024-03-07T00:06:52.499Z,37.57
2024-03-07T00:10:54.081Z,47.63
2024-03-07T00:14:55.694Z,44.97
2024-03-07T00:18:57.126Z,41.90
2024-03-07T00:22:58.613Z,41.20
2024-03-07T00:27:00.095Z,52.33
2024-03-07T00:31:01.640Z,42.13
2024-03-07T00:35:06.138Z,40.00
2024-03-07T00:39:12.478Z,43.80
2024-03-07T00:43:14.342Z,45.43
2024-03-07T00:47:18.430Z,45.73
2024-03-07T00:51:19.867Z,41.80
2024-03-07T00:55:21.496Z,45.27
2024-03-07T00:59:23.187Z,52.47
2024-03-07T01:03:24.773Z,47.20
2024-03-07T01:07:28.367Z,40.43
2024-03-07T01:11:30.141Z,43.27
2024-03-07T01:15:32.863Z,40.23
2024-03-07T01:19:34.514Z,42.90
2024-03-07T01:23:36.056Z,42.93
2024-03-07T01:27:37.331Z,49.30
2024-03-07T01:31:38.646Z,51.57
2024-03-07T01:35:40.177Z,45.00
2024-03-07T01:39:41.508Z,47.83
2024-03-07T01:43:43.519Z,41.90
2024-03-07T01:47:45.862Z,42.83
2024-03-07T01:51:47.244Z,42.57
2024-03-07T01:55:50.056Z,47.30
2024-03-07T01:59:51.896Z,40.80
2024-03-07T02:03:53.330Z,38.33
2024-03-07T02:07:54.694Z,43.07
2024-03-07T02:11:56.628Z,44.70
2024-03-07T02:15:59.134Z,38.97
2024-03-07T02:20:01.287Z,37.47
2024-03-07T02:24:02.894Z,37.80
2024-03-07T02:28:07.300Z,37.70
2024-03-07T02:32:10.399Z,37.07
2024-03-07T02:36:11.656Z,39.43
2024-03-07T02:40:14.168Z,40.80
2024-03-07T02:44:15.491Z,39.80
2024-03-07T02:48:18.824Z,43.70
2024-03-07T02:52:20.160Z,38.07
2024-03-07T02:56:21.558Z,38.43
2024-03-07T03:00:30.022Z,39.33
2024-03-07T03:04:31.470Z,40.57
2024-03-07T03:08:32.927Z,40.80
2024-03-07T03:12:35.220Z,38.07
2024-03-07T03:16:46.592Z,37.73
2024-03-07T03:20:40.438Z,42.20
2024-03-07T03:24:42.024Z,45.03
2024-03-07T03:28:43.380Z,42.37
2024-03-07T03:32:46.895Z,42.40
2024-03-07T03:36:48.658Z,40.30
2024-03-07T03:40:50.070Z,39.63
2024-03-07T03:44:51.388Z,44.10
2024-03-07T03:48:52.851Z,37.47
2024-03-07T03:52:54.213Z,45.03
2024-03-07T03:56:55.529Z,40.57
2024-03-07T04:00:58.702Z,39.57
2024-03-07T04:05:00.451Z,43.60
2024-03-07T04:09:01.840Z,41.73
2024-03-07T04:13:03.869Z,38.90
2024-03-07T04:17:07.273Z,42.90
2024-03-07T04:21:09.896Z,39.73
2024-03-07T04:25:11.304Z,42.23
2024-03-07T04:29:12.690Z,42.80
2024-03-07T04:33:14.206Z,37.00
2024-03-07T04:37:15.721Z,40.70
2024-03-07T04:45:25.637Z,37.93
2024-03-07T04:49:28.781Z,38.63
2024-03-07T04:53:30.170Z,36.33
2024-03-07T04:57:31.435Z,40.07
2024-03-07T05:01:33.506Z,34.90
2024-03-07T05:05:34.919Z,36.87
2024-03-07T05:09:36.338Z,40.57
2024-03-07T05:13:37.665Z,36.77
2024-03-07T05:17:39.698Z,38.07
2024-03-07T05:21:41.155Z,38.97
2024-03-07T05:25:42.646Z,38.93
2024-03-07T05:29:44.260Z,39.37
2024-03-07T05:33:45.642Z,39.60
2024-03-07T05:37:47.650Z,39.67
2024-03-07T05:41:49.030Z,39.93
2024-03-07T05:45:50.489Z,38.00
2024-03-07T05:49:52.070Z,40.00
2024-03-07T05:53:54.335Z,36.33
2024-03-07T05:57:56.417Z,41.40
2024-03-07T06:01:57.919Z,43.93
2024-03-07T06:05:59.372Z,36.50
2024-03-07T06:10:01.139Z,40.87
2024-03-07T06:14:05.816Z,34.13
2024-03-07T06:22:18.938Z,33.80
2024-03-07T06:26:22.170Z,34.10
2024-03-07T06:30:24.022Z,48.40
2024-03-07T06:34:26.155Z,35.10
2024-03-07T06:38:27.555Z,39.60
2024-03-07T06:42:29.300Z,41.00
2024-03-07T06:46:31.862Z,36.50
2024-03-07T06:50:38.023Z,41.93
2024-03-07T06:54:36.845Z,36.60
2024-03-07T06:58:39.176Z,40.37
2024-03-07T07:02:41.502Z,39.37
2024-03-07T07:06:43.313Z,36.70
2024-03-07T07:10:44.686Z,38.27
2024-03-07T07:14:46.060Z,32.10
2024-03-07T07:18:47.351Z,32.73
2024-03-07T07:22:49.129Z,35.07
2024-03-07T07:26:51.425Z,38.90
2024-03-07T07:30:52.729Z,35.70
2024-03-07T07:34:54.844Z,29.47
2024-03-07T07:38:56.203Z,35.93
2024-03-07T07:42:57.569Z,35.00
2024-03-07T07:46:58.995Z,33.43
2024-03-07T07:51:00.465Z,35.60
2024-03-07T07:55:01.851Z,35.20
2024-03-07T07:59:05.831Z,27.57
2024-03-07T08:03:07.668Z,30.67
2024-03-07T08:07:09.155Z,27.30
2024-03-07T08:11:12.363Z,25.10
2024-03-07T08:15:14.418Z,27.07
2024-03-07T08:19:15.923Z,26.03
2024-03-07T08:23:17.309Z,24.50
2024-03-07T08:27:18.758Z,24.60
2024-03-07T08:31:20.106Z,27.40
2024-03-07T08:35:22.409Z,24.77
2024-03-07T08:39:23.789Z,24.40
2024-03-07T08:43:25.093Z,24.17
2024-03-07T08:47:26.511Z,23.30
2024-03-07T08:51:27.772Z,24.40
2024-03-07T08:55:29.187Z,26.67
2024-03-07T08:59:30.555Z,24.93
2024-03-07T09:03:32.686Z,24.77
2024-03-07T09:07:33.969Z,27.10
2024-03-07T09:11:37.042Z,27.70
2024-03-07T09:15:38.426Z,26.57
2024-03-07T09:19:39.765Z,25.10
2024-03-07T09:23:42.017Z,27.97
2024-03-07T09:27:43.876Z,19.07
2024-03-07T09:31:46.985Z,26.30
2024-03-07T09:39:56.360Z,27.10
2024-03-07T09:43:59.173Z,29.30
2024-03-07T09:48:01.731Z,25.30
2024-03-07T09:52:12.208Z,25.63
2024-03-07T09:56:14.809Z,26.00
2024-03-07T10:00:29.635Z,26.83
2024-03-07T10:04:41.544Z,26.17
2024-03-07T10:08:44.005Z,26.27
2024-03-07T10:12:45.311Z,31.80
2024-03-07T10:16:47.032Z,28.87
2024-03-07T10:20:48.912Z,46.90
2024-03-07T10:24:59.471Z,30.13
2024-03-07T10:29:00.789Z,38.00
2024-03-07T10:33:03.103Z,25.40
2024-03-07T10:37:05.719Z,26.23
2024-03-07T10:41:09.776Z,22.60
2024-03-07T10:45:11.522Z,26.93
2024-03-07T10:49:16.356Z,23.40
2024-03-07T10:53:42.926Z,25.60
2024-03-07T10:57:51.634Z,23.30
2024-03-07T11:02:00.204Z,25.10
2024-03-07T11:06:04.076Z,23.47
2024-03-07T11:10:07.841Z,22.97
2024-03-07T11:14:11.304Z,23.83
2024-03-07T11:18:13.497Z,24.67
2024-03-07T11:22:33.313Z,23.83
2024-03-07T11:26:34.932Z,23.27
2024-03-07T11:30:36.298Z,23.10
2024-03-07T11:34:41.888Z,25.43
2024-03-07T11:38:47.166Z,19.97
2024-03-07T11:42:48.985Z,33.40
2024-03-07T11:46:50.722Z,23.23
2024-03-07T11:50:52.109Z,19.40
2024-03-07T11:54:53.773Z,19.07
2024-03-07T11:58:57.021Z,17.37
2024-03-07T12:02:59.646Z,18.60
2024-03-07T12:07:01.026Z,21.90
2024-03-07T12:11:03.779Z,16.27
2024-03-07T12:15:09.174Z,17.80
2024-03-07T12:19:10.786Z,17.33
2024-03-07T12:23:12.921Z,18.20
2024-03-07T12:27:16.219Z,14.03
2024-03-07T12:31:18.327Z,17.93
2024-03-07T12:35:19.709Z,19.40
2024-03-07T12:39:28.992Z,16.40
2024-03-07T12:43:33.676Z,17.10
2024-03-07T12:51:43.500Z,15.73
2024-03-07T12:55:44.815Z,18.40
2024-03-07T12:59:46.187Z,17.53
2024-03-07T13:03:48.576Z,17.20
2024-03-07T13:07:50.481Z,15.73
2024-03-07T13:11:51.949Z,15.20
2024-03-07T13:15:55.244Z,14.97
2024-03-07T13:19:58.483Z,14.10
2024-03-07T13:24:00.669Z,14.73
2024-03-07T13:28:09.110Z,14.63
2024-03-07T13:32:12.298Z,16.63
2024-03-07T13:36:18.111Z,12.37
2024-03-07T13:40:25.573Z,15.10
2024-03-07T13:44:30.298Z,14.27
2024-03-07T13:48:34.343Z,16.80
2024-03-07T13:52:37.646Z,14.63
2024-03-07T13:56:52.120Z,16.77
2024-03-07T14:00:57.261Z,17.00
2024-03-07T14:05:31.613Z,14.13
2024-03-07T14:09:53.614Z,18.03
2024-03-07T14:14:03.390Z,14.47
2024-03-07T14:18:26.566Z,13.67
2024-03-07T14:22:33.064Z,14.43
2024-03-07T14:27:11.739Z,17.37
2024-03-07T14:31:13.162Z,14.60
2024-03-07T14:35:34.126Z,13.77
2024-03-07T14:39:37.243Z,15.13
2024-03-07T14:43:39.437Z,18.53
2024-03-07T14:47:40.871Z,13.13
2024-03-07T14:51:51.426Z,15.37
2024-03-07T14:55:46.244Z,13.47
2024-03-07T14:59:49.299Z,15.40
2024-03-07T15:03:50.971Z,16.87
2024-03-07T15:07:54.430Z,16.63
2024-03-07T15:11:55.819Z,15.57
2024-03-07T15:15:59.116Z,13.57
2024-03-07T15:20:00.499Z,14.57
2024-03-07T15:24:04.238Z,15.77
2024-03-07T15:28:18.651Z,14.67
2024-03-07T15:32:20.318Z,13.70
2024-03-07T15:36:22.509Z,13.10
2024-03-07T15:40:24.354Z,17.90
2024-03-07T15:44:26.018Z,16.50
2024-03-07T15:48:27.878Z,14.93
2024-03-07T15:52:29.220Z,17.13
2024-03-07T15:56:31.106Z,16.80
2024-03-07T16:00:34.684Z,17.60
2024-03-07T16:04:36.721Z,17.10
2024-03-07T16:08:39.751Z,18.10
2024-03-07T16:12:41.064Z,17.90
2024-03-07T16:16:42.804Z,16.53
2024-03-07T16:20:46.152Z,18.70
2024-03-07T16:24:47.461Z,18.70
2024-03-07T16:28:48.786Z,23.17
2024-03-07T16:32:53.990Z,18.87
2024-03-07T16:36:56.677Z,20.87
2024-03-07T16:40:58.032Z,15.67
2024-03-07T16:44:59.471Z,17.97
2024-03-07T16:49:00.848Z,16.93
2024-03-07T16:53:06.825Z,14.47
2024-03-07T16:57:08.904Z,18.17
2024-03-07T17:01:12.203Z,18.13
2024-03-07T17:05:18.599Z,18.37
2024-03-07T17:09:19.928Z,21.37
2024-03-07T17:13:22.946Z,16.70
2024-03-07T17:17:25.215Z,19.13
2024-03-07T17:21:27.193Z,14.83
2024-03-07T17:25:31.692Z,14.63
2024-03-07T17:29:33.044Z,17.60
2024-03-07T17:33:35.696Z,16.20
2024-03-07T17:37:39.351Z,15.27
2024-03-07T17:41:41.261Z,15.57
2024-03-07T17:45:42.689Z,18.87
2024-03-07T17:49:44.078Z,17.87
2024-03-07T17:53:47.344Z,17.10
2024-03-07T17:57:49.413Z,17.40
2024-03-07T18:01:50.932Z,19.27
2024-03-07T18:05:54.556Z,17.47
2024-03-07T18:09:56.008Z,16.80
2024-03-07T18:22:14.847Z,19.53
2024-03-07T18:26:16.227Z,18.67
2024-03-07T18:30:21.130Z,17.10
2024-03-07T18:34:22.632Z,17.73
2024-03-07T18:38:26.019Z,19.87
2024-03-07T18:42:31.974Z,16.93
2024-03-07T18:46:34.685Z,17.67
2024-03-07T18:50:40.991Z,19.40
2024-03-07T18:54:42.390Z,16.17
2024-03-07T18:58:45.697Z,17.07
2024-03-07T19:02:47.660Z,16.23
2024-03-07T19:06:48.915Z,18.93
2024-03-07T19:10:56.099Z,16.47
2024-03-07T19:14:57.561Z,20.90
2024-03-07T19:18:58.992Z,15.53
2024-03-07T19:23:00.386Z,18.43
2024-03-07T19:27:01.783Z,15.93
2024-03-07T19:31:03.304Z,19.03
2024-03-07T19:35:05.360Z,20.03
2024-03-07T19:39:09.096Z,17.13
2024-03-07T19:43:10.437Z,15.43
2024-03-07T19:47:13.606Z,20.13
2024-03-07T19:51:15.061Z,17.67
2024-03-07T19:55:18.368Z,16.60
2024-03-07T19:59:20.814Z,20.23
2024-03-07T20:03:23.321Z,23.60
2024-03-07T20:07:25.359Z,16.80
2024-03-07T20:11:26.772Z,19.80
2024-03-07T20:15:28.204Z,17.60
2024-03-07T20:19:31.080Z,16.83
2024-03-07T20:23:33.216Z,18.17
2024-03-07T20:27:35.452Z,16.37
2024-03-07T20:31:37.772Z,20.77
2024-03-07T20:35:39.177Z,19.30
2024-03-07T20:39:42.039Z,19.30
2024-03-07T20:43:45.595Z,24.30
2024-03-07T20:47:51.199Z,19.73
2024-03-07T20:51:53.329Z,20.10
2024-03-07T20:55:54.673Z,20.00
2024-03-07T20:59:56.581Z,19.53
2024-03-07T21:04:00.106Z,17.80
2024-03-07T21:08:02.561Z,17.03
2024-03-07T21:12:04.520Z,21.57
2024-03-07T21:16:07.037Z,19.03
2024-03-07T21:20:15.807Z,21.20
2024-03-07T21:24:17.377Z,20.90
2024-03-07T21:28:18.663Z,24.33
2024-03-07T21:32:20.068Z,21.43
2024-03-07T21:36:21.404Z,22.43
2024-03-07T21:40:23.648Z,21.33
2024-03-07T21:44:25.071Z,23.00
2024-03-07T21:48:27.369Z,20.40
2024-03-07T21:52:28.785Z,28.67
2024-03-07T21:56:30.457Z,22.00
2024-03-07T22:00:32.872Z,25.97
2024-03-07T22:04:35.911Z,23.10
2024-03-07T22:08:37.465Z,23.30
2024-03-07T22:12:42.964Z,20.43
2024-03-07T22:16:51.756Z,24.50
2024-03-07T22:20:53.401Z,27.10
2024-03-07T22:24:56.584Z,27.20
2024-03-07T22:28:58.636Z,24.40
2024-03-07T22:33:00.577Z,26.37
2024-03-07T22:37:02.213Z,22.00
2024-03-07T22:41:06.981Z,27.43
2024-03-07T22:45:11.256Z,24.50
2024-03-07T22:49:12.698Z,31.10
2024-03-07T22:53:14.169Z,22.70
2024-03-07T22:57:15.504Z,26.73
2024-03-07T23:01:18.933Z,26.80
2024-03-07T23:05:22.456Z,23.50
2024-03-07T23:09:25.686Z,24.67
2024-03-07T23:13:27.762Z,24.50
2024-03-07T23:17:29.174Z,25.10
2024-03-07T23:21:30.531Z,25.97
2024-03-07T23:25:31.886Z,26.50
2024-03-07T23:29:33.746Z,24.20
2024-03-07T23:33:35.220Z,24.80
2024-03-07T23:37:36.634Z,23.67
2024-03-07T23:41:39.033Z,22.97
2024-03-07T23:45:53.504Z,22.83
2024-03-07T23:49:55.628Z,24.40
2024-03-07T23:53:57.041Z,26.70
2024-03-07T23:57:58.335Z,25.63
